Time;durP1;ratioP1;P1;durP2;ratioP2;P2;SDS_P1;SDS_P2;PMS_P1;PMS_P2;Temp;Humidity;BMP_temperature;BMP_pressure;BME280_temperature;BME280_humidity;BME280_pressure;Samples;Min_cycle;Max_cycle;Signal;HPM_P1;HPM_P2
2023/01/23 00:01:52;;;;;;;34.73;23.73;;;3.60;99.90;;;;;;5063500;28;20362;-34
2023/01/23 00:04:19;;;;;;;36.63;24.10;;;3.60;99.90;;;;;;5063300;28;20265;-33
2023/01/23 00:06:49;;;;;;;32.90;23.07;;;3.50;99.90;;;;;;5065209;28;20195;-34
2023/01/23 00:09:16;;;;;;;34.73;23.60;;;3.50;99.90;;;;;;5064128;28;20207;-34
2023/01/23 00:11:48;;;;;;;32.07;22.60;;;3.60;99.90;;;;;;5063978;28;20191;-34
2023/01/23 00:14:18;;;;;;;31.67;23.23;;;3.60;99.90;;;;;;5064618;28;20236;-34
2023/01/23 00:16:45;;;;;;;33.43;22.63;;;3.60;99.90;;;;;;5064774;28;20359;-33
2023/01/23 00:19:19;;;;;;;35.47;23.60;;;3.70;99.90;;;;;;5063386;28;20241;-34
2023/01/23 00:21:51;;;;;;;35.73;24.23;;;3.70;99.90;;;;;;5064566;28;20219;-33
2023/01/23 00:24:21;;;;;;;35.40;22.33;;;3.70;99.90;;;;;;5063659;28;20253;-33
2023/01/23 00:26:50;;;;;;;31.50;22.03;;;3.70;99.90;;;;;;5064814;28;20210;-34
2023/01/23 00:29:22;;;;;;;36.83;24.43;;;3.70;99.90;;;;;;5061829;28;20769;-33
2023/01/23 00:31:49;;;;;;;30.87;22.30;;;3.70;99.90;;;;;;5061926;28;20669;-34
2023/01/23 00:34:16;;;;;;;30.73;21.27;;;3.60;99.90;;;;;;5062485;28;20744;-34
2023/01/23 00:36:46;;;;;;;36.37;24.10;;;3.70;99.90;;;;;;5065205;28;20556;-34
2023/01/23 00:39:20;;;;;;;32.00;24.30;;;3.70;99.90;;;;;;5063718;28;20212;-34
2023/01/23 00:41:48;;;;;;;36.67;24.87;;;3.70;99.90;;;;;;5064394;28;20252;-34
2023/01/23 00:44:16;;;;;;;37.40;23.97;;;3.70;99.90;;;;;;5064149;28;20209;-34
2023/01/23 00:46:46;;;;;;;33.30;22.30;;;3.70;99.90;;;;;;5062999;28;20334;-33
2023/01/23 00:49:16;;;;;;;37.90;25.20;;;3.70;99.90;;;;;;5058385;28;20207;-33
2023/01/23 00:51:49;;;;;;;39.27;25.37;;;3.70;99.90;;;;;;5063105;28;20309;-33
2023/01/23 00:54:18;;;;;;;36.03;24.73;;;3.70;99.90;;;;;;5061814;28;20227;-34
2023/01/23 00:56:46;;;;;;;40.83;25.67;;;3.70;99.90;;;;;;5064207;28;20297;-33
2023/01/23 00:59:13;;;;;;;38.97;25.03;;;3.70;99.90;;;;;;5061660;28;20353;-33
2023/01/23 01:01:43;;;;;;;43.53;26.60;;;3.70;99.90;;;;;;5062525;28;20246;-33
2023/01/23 01:04:10;;;;;;;37.23;24.87;;;3.70;99.90;;;;;;5061534;28;20893;-34
2023/01/23 01:06:42;;;;;;;45.83;27.97;;;3.70;99.90;;;;;;5063293;28;20227;-33
2023/01/23 01:09:12;;;;;;;39.57;25.97;;;3.60;99.90;;;;;;5062785;28;20693;-33
2023/01/23 01:11:39;;;;;;;40.87;26.80;;;3.60;99.90;;;;;;5062605;28;20285;-34
2023/01/23 01:14:06;;;;;;;44.83;26.97;;;3.60;99.90;;;;;;5063865;28;20334;-33
2023/01/23 01:16:34;;;;;;;48.43;26.80;;;3.60;99.90;;;;;;5063229;28;20215;-33
2023/01/23 01:19:02;;;;;;;41.30;27.73;;;3.60;99.90;;;;;;5062809;28;20192;-34
2023/01/23 01:21:29;;;;;;;40.30;25.87;;;3.60;99.90;;;;;;5050686;28;20212;-34
2023/01/23 01:23:56;;;;;;;43.10;25.63;;;3.50;99.90;;;;;;5058298;28;20243;-34
2023/01/23 01:26:25;;;;;;;44.20;27.37;;;3.50;99.90;;;;;;5055591;28;20203;-34
2023/01/23 01:28:54;;;;;;;44.90;27.63;;;3.50;99.90;;;;;;5063085;28;20218;-34
2023/01/23 01:31:22;;;;;;;43.33;27.53;;;3.50;99.90;;;;;;5063227;28;20224;-33
2023/01/23 01:33:49;;;;;;;38.77;25.53;;;3.50;99.90;;;;;;5063161;28;20725;-34
2023/01/23 01:36:21;;;;;;;46.63;28.57;;;3.50;99.90;;;;;;5062635;28;20294;-34
2023/01/23 01:38:50;;;;;;;48.20;27.47;;;3.60;99.90;;;;;;5063625;28;20345;-34
2023/01/23 01:41:18;;;;;;;49.30;28.97;;;3.60;99.90;;;;;;5061713;28;20216;-34
2023/01/23 01:43:47;;;;;;;44.17;27.73;;;3.60;99.90;;;;;;5051826;28;20283;-34
2023/01/23 01:46:24;;;;;;;44.80;28.63;;;3.50;99.90;;;;;;5063295;28;20617;-34
2023/01/23 01:49:06;;;;;;;43.50;26.37;;;3.60;99.90;;;;;;5061987;28;20217;-33
2023/01/23 01:52:04;;;;;;;48.83;30.20;;;3.60;99.90;;;;;;5061050;28;20243;-34
2023/01/23 01:54:44;;;;;;;48.23;29.07;;;3.50;99.90;;;;;;5061104;28;20632;-34
2023/01/23 01:57:34;;;;;;;49.53;28.43;;;3.50;99.90;;;;;;5061130;28;20215;-33
2023/01/23 02:00:16;;;;;;;46.90;28.27;;;3.60;99.90;;;;;;5045379;28;20628;-33
2023/01/23 02:02:57;;;;;;;44.10;28.53;;;3.50;99.90;;;;;;5056939;28;20207;-33
2023/01/23 02:05:31;;;;;;;43.10;27.50;;;3.50;99.90;;;;;;5064823;28;20701;-34
2023/01/23 02:08:19;;;;;;;49.60;29.33;;;3.50;99.90;;;;;;5051561;28;20278;-33
2023/01/23 02:10:51;;;;;;;51.37;29.23;;;3.60;99.90;;;;;;5066288;28;20662;-34
2023/01/23 02:13:27;;;;;;;44.57;28.10;;;3.60;99.90;;;;;;5050355;28;20212;-33
2023/01/23 02:15:55;;;;;;;51.77;28.90;;;3.60;99.90;;;;;;5047883;28;20213;-34
2023/01/23 02:18:23;;;;;;;48.43;29.27;;;3.60;99.90;;;;;;5063482;28;20573;-34
2023/01/23 02:20:52;;;;;;;48.33;29.20;;;3.60;99.90;;;;;;5066166;28;20688;-33
2023/01/23 02:23:49;;;;;;;47.17;27.67;;;3.60;99.90;;;;;;5062560;28;20352;-33
2023/01/23 02:26:23;;;;;;;51.57;30.67;;;3.60;99.90;;;;;;5056640;28;20326;-33
2023/01/23 02:28:52;;;;;;;51.83;30.00;;;3.60;99.90;;;;;;5048638;28;20234;-34
2023/01/23 02:31:19;;;;;;;62.10;30.60;;;3.60;99.90;;;;;;5055198;28;20203;-34
2023/01/23 02:33:58;;;;;;;54.80;29.80;;;3.60;99.90;;;;;;5066357;28;20230;-34
2023/01/23 02:36:29;;;;;;;53.87;30.77;;;3.60;99.90;;;;;;5066458;28;20215;-33
2023/01/23 02:39:09;;;;;;;53.73;30.57;;;3.50;99.90;;;;;;5067522;28;20261;-34
2023/01/23 02:41:43;;;;;;;53.10;29.90;;;3.50;99.90;;;;;;5060216;28;20273;-34
2023/01/23 02:44:32;;;;;;;48.70;28.93;;;3.50;99.90;;;;;;5066822;28;20674;-33
2023/01/23 02:47:04;;;;;;;57.03;30.07;;;3.60;99.90;;;;;;5061671;28;20678;-33
2023/01/23 02:49:33;;;;;;;58.30;30.80;;;3.60;99.90;;;;;;5066324;28;20757;-34
2023/01/23 02:52:02;;;;;;;52.33;31.23;;;3.60;99.90;;;;;;5064781;28;20319;-33
2023/01/23 02:54:33;;;;;;;53.03;29.17;;;3.60;99.90;;;;;;5065552;28;20333;-35
2023/01/23 02:57:01;;;;;;;51.53;30.40;;;3.60;99.90;;;;;;5065000;28;20261;-34
2023/01/23 03:02:14;;;;;;;56.27;29.87;;;3.60;99.90;;;;;;5065253;28;20219;-34
2023/01/23 03:04:41;;;;;;;52.67;29.43;;;3.60;99.90;;;;;;5066567;28;20265;-33
2023/01/23 03:07:09;;;;;;;57.33;30.00;;;3.60;99.90;;;;;;5065531;28;20542;-34
2023/01/23 03:09:36;;;;;;;54.27;29.37;;;3.60;99.90;;;;;;5064910;28;20522;-33
2023/01/23 03:12:06;;;;;;;57.73;30.97;;;3.60;99.90;;;;;;5065488;28;20223;-34
2023/01/23 03:14:33;;;;;;;51.27;29.13;;;3.60;99.90;;;;;;5063739;28;20281;-34
2023/01/23 03:17:01;;;;;;;46.60;28.13;;;3.60;99.90;;;;;;5064222;28;20199;-35
2023/01/23 03:19:33;;;;;;;59.30;30.80;;;3.60;99.90;;;;;;5063949;28;20223;-34
2023/01/23 03:22:02;;;;;;;68.90;32.03;;;3.60;99.90;;;;;;5065386;28;20226;-33
2023/01/23 03:24:34;;;;;;;53.20;29.03;;;3.60;99.90;;;;;;5062581;28;20246;-34
2023/01/23 03:27:08;;;;;;;57.73;30.10;;;3.60;99.90;;;;;;5065120;28;20312;-34
2023/01/23 03:32:28;;;;;;;55.87;30.73;;;3.60;99.90;;;;;;5064529;28;20204;-34
2023/01/23 03:35:02;;;;;;;59.27;30.73;;;3.60;99.90;;;;;;5064820;28;20258;-34
2023/01/23 03:37:32;;;;;;;58.07;31.87;;;3.60;99.90;;;;;;5065917;28;20219;-34
2023/01/23 03:42:45;;;;;;;54.03;30.03;;;3.60;99.90;;;;;;5060133;28;20550;-34
2023/01/23 03:45:15;;;;;;;54.73;30.03;;;3.60;99.90;;;;;;5064807;28;20219;-33
2023/01/23 03:47:42;;;;;;;50.00;28.83;;;3.60;99.90;;;;;;5063730;28;20195;-34
2023/01/23 03:50:09;;;;;;;62.70;31.53;;;3.70;99.90;;;;;;5063714;28;20203;-33
2023/01/23 03:52:39;;;;;;;60.60;32.37;;;3.70;99.90;;;;;;5064995;28;20238;-34
2023/01/23 03:55:09;;;;;;;67.47;30.30;;;3.70;99.90;;;;;;5065439;28;20229;-34
2023/01/23 03:57:41;;;;;;;55.67;30.97;;;3.70;99.90;;;;;;5064773;28;20203;-34
2023/01/23 04:00:09;;;;;;;61.20;31.73;;;3.70;99.90;;;;;;5064274;28;20338;-34
2023/01/23 04:02:41;;;;;;;69.63;33.10;;;3.70;99.90;;;;;;5061043;28;20208;-34
2023/01/23 04:05:08;;;;;;;58.50;31.77;;;3.70;99.90;;;;;;5064652;28;20618;-34
2023/01/23 04:07:35;;;;;;;64.47;32.70;;;3.70;99.90;;;;;;5064945;28;20235;-33
2023/01/23 04:10:03;;;;;;;72.73;33.27;;;3.70;99.90;;;;;;5061870;28;20212;-33
2023/01/23 04:12:32;;;;;;;66.63;32.43;;;3.70;99.90;;;;;;5063671;28;20264;-34
2023/01/23 04:14:59;;;;;;;67.60;31.93;;;3.70;99.90;;;;;;5064681;28;20216;-34
2023/01/23 04:17:31;;;;;;;61.50;30.73;;;3.70;99.90;;;;;;5062921;28;20299;-34
2023/01/23 04:20:00;;;;;;;67.00;31.53;;;3.70;99.90;;;;;;5064843;28;20627;-33
2023/01/23 04:22:30;;;;;;;63.53;32.70;;;3.70;99.90;;;;;;5064015;28;20295;-34
2023/01/23 04:25:04;;;;;;;64.67;32.93;;;3.70;99.90;;;;;;5065475;28;20214;-34
2023/01/23 04:27:32;;;;;;;68.40;32.73;;;3.70;99.90;;;;;;5064462;28;20219;-34
2023/01/23 04:30:02;;;;;;;76.83;32.90;;;3.70;99.90;;;;;;5064605;28;20207;-34
2023/01/23 04:32:32;;;;;;;62.73;31.80;;;3.70;99.90;;;;;;5062554;28;20641;-34
2023/01/23 04:35:01;;;;;;;67.33;34.87;;;3.70;99.90;;;;;;5062321;28;20223;-33
2023/01/23 04:37:33;;;;;;;63.17;32.03;;;3.70;99.90;;;;;;5065078;28;20219;-33
2023/01/23 04:40:00;;;;;;;66.73;33.03;;;3.70;99.90;;;;;;5063180;28;20744;-34
2023/01/23 04:42:28;;;;;;;59.57;29.53;;;3.70;99.90;;;;;;5063662;28;20207;-34
2023/01/23 04:44:57;;;;;;;69.20;33.57;;;3.70;99.90;;;;;;5063195;28;20658;-34
2023/01/23 04:47:29;;;;;;;64.33;32.10;;;3.70;99.90;;;;;;5062580;28;20229;-34
2023/01/23 04:49:58;;;;;;;74.50;32.63;;;3.70;99.90;;;;;;5062554;28;20233;-34
2023/01/23 04:52:26;;;;;;;69.53;32.77;;;3.80;99.90;;;;;;5064663;28;20327;-34
2023/01/23 04:54:53;;;;;;;75.40;32.80;;;3.80;99.90;;;;;;5063933;28;20271;-34
2023/01/23 04:57:28;;;;;;;66.60;32.90;;;3.80;99.90;;;;;;5063792;28;20249;-34
2023/01/23 04:59:55;;;;;;;62.87;31.13;;;3.80;99.90;;;;;;5064059;28;20208;-33
2023/01/23 05:02:24;;;;;;;77.07;34.90;;;3.80;99.90;;;;;;5059737;28;20254;-33
2023/01/23 05:04:52;;;;;;;71.20;34.23;;;3.80;99.90;;;;;;5056046;28;20219;-33
2023/01/23 05:07:19;;;;;;;71.63;32.73;;;3.80;99.90;;;;;;5054143;28;20215;-34
2023/01/23 05:09:51;;;;;;;71.57;34.27;;;3.80;99.90;;;;;;5064320;28;20647;-34
2023/01/23 05:12:21;;;;;;;64.20;31.93;;;3.90;99.90;;;;;;5062750;28;20249;-34
2023/01/23 05:14:50;;;;;;;78.00;33.87;;;3.90;99.90;;;;;;5063804;28;20246;-34
2023/01/23 05:17:17;;;;;;;81.40;33.90;;;3.90;99.90;;;;;;5062021;28;20195;-33
2023/01/23 05:19:49;;;;;;;72.83;35.90;;;3.90;99.90;;;;;;5063283;28;20211;-34
2023/01/23 05:22:21;;;;;;;71.27;34.63;;;3.90;99.90;;;;;;5055126;28;20295;-34
2023/01/23 05:24:48;;;;;;;64.70;33.97;;;3.90;99.90;;;;;;5062493;28;20199;-34
2023/01/23 05:27:18;;;;;;;85.77;35.30;;;3.80;99.90;;;;;;5063214;28;20200;-34
2023/01/23 05:29:47;;;;;;;80.23;32.80;;;3.80;99.90;;;;;;5052041;28;20266;-33
2023/01/23 05:32:17;;;;;;;80.60;36.70;;;3.80;99.90;;;;;;5061086;28;20847;-33
2023/01/23 05:34:44;;;;;;;73.13;34.10;;;3.80;99.90;;;;;;5063339;28;20215;-34
2023/01/23 05:37:12;;;;;;;69.30;34.37;;;3.80;99.90;;;;;;5063120;28;20215;-34
2023/01/23 05:39:39;;;;;;;68.00;33.50;;;3.80;99.90;;;;;;5064320;28;20199;-34
2023/01/23 05:42:06;;;;;;;75.43;34.00;;;3.80;99.90;;;;;;5066928;28;20253;-34
2023/01/23 05:44:33;;;;;;;69.40;33.80;;;3.80;99.90;;;;;;5067653;28;20648;-34
2023/01/23 05:47:03;;;;;;;71.90;34.90;;;3.80;99.90;;;;;;5067118;28;20219;-34
2023/01/23 05:49:35;;;;;;;68.43;33.03;;;3.90;99.90;;;;;;5066808;28;20225;-34
2023/01/23 05:52:02;;;;;;;76.00;35.07;;;3.90;99.90;;;;;;5066385;28;20548;-34
2023/01/23 05:54:32;;;;;;;76.27;33.57;;;3.90;99.90;;;;;;5068053;28;20231;-34
2023/01/23 05:57:02;;;;;;;68.20;33.47;;;3.80;99.90;;;;;;5067558;28;20253;-33
2023/01/23 05:59:36;;;;;;;71.30;34.67;;;3.80;99.90;;;;;;5047772;28;20681;-34
2023/01/23 06:02:06;;;;;;;82.37;34.77;;;3.80;99.90;;;;;;5057732;28;20200;-34
2023/01/23 06:04:36;;;;;;;69.07;32.60;;;3.90;99.90;;;;;;5055759;28;20223;-34
2023/01/23 06:07:12;;;;;;;67.17;33.37;;;3.80;99.90;;;;;;5053990;28;20290;-34
2023/01/23 06:09:39;;;;;;;65.53;31.33;;;3.90;99.90;;;;;;5053745;28;20808;-34
2023/01/23 06:12:07;;;;;;;66.47;34.50;;;3.90;99.90;;;;;;5062694;28;20234;-34
2023/01/23 06:14:37;;;;;;;66.50;34.07;;;3.90;99.90;;;;;;5058585;28;20219;-34
2023/01/23 06:17:05;;;;;;;69.13;33.53;;;3.90;99.90;;;;;;5060173;28;20993;-34
2023/01/23 06:19:33;;;;;;;66.97;33.67;;;3.90;99.90;;;;;;5063892;28;20686;-33
2023/01/23 06:22:00;;;;;;;64.33;34.77;;;3.90;99.90;;;;;;5051554;28;20246;-34
2023/01/23 06:24:27;;;;;;;70.80;34.53;;;3.90;99.90;;;;;;5063318;28;20705;-34
2023/01/23 06:26:55;;;;;;;71.77;33.97;;;3.90;99.90;;;;;;5058619;28;20681;-34
2023/01/23 06:29:24;;;;;;;73.07;34.20;;;3.90;99.90;;;;;;5047396;28;20209;-34
2023/01/23 06:31:51;;;;;;;76.93;34.20;;;3.90;99.90;;;;;;5061652;28;20257;-34
2023/01/23 06:34:23;;;;;;;69.17;33.13;;;3.90;99.90;;;;;;5056929;28;20280;-33
2023/01/23 06:36:55;;;;;;;67.20;34.50;;;3.90;99.90;;;;;;5067311;28;20282;-34
2023/01/23 06:39:22;;;;;;;64.93;31.30;;;3.90;99.90;;;;;;5065664;28;20235;-33
2023/01/23 06:41:52;;;;;;;64.47;33.00;;;3.90;99.90;;;;;;5066781;28;20199;-34
2023/01/23 06:44:19;;;;;;;69.03;33.33;;;3.90;99.90;;;;;;5063653;28;20666;-34
2023/01/23 06:46:47;;;;;;;67.33;34.50;;;3.90;99.90;;;;;;5057979;28;20200;-34
2023/01/23 06:49:16;;;;;;;73.87;36.10;;;3.90;99.90;;;;;;5049554;28;20407;-34
2023/01/23 06:51:46;;;;;;;74.80;34.07;;;3.90;99.90;;;;;;5054685;28;20601;-33
2023/01/23 06:54:15;;;;;;;67.63;32.70;;;3.90;99.90;;;;;;5061743;28;20214;-34
2023/01/23 06:56:43;;;;;;;53.80;29.93;;;3.90;99.90;;;;;;5066166;28;20281;-34
2023/01/23 06:59:10;;;;;;;56.67;30.60;;;3.90;99.90;;;;;;5065980;28;20233;-34
2023/01/23 07:01:37;;;;;;;64.87;32.43;;;4.00;99.90;;;;;;5056932;28;20195;-34
2023/01/23 07:04:04;;;;;;;66.20;32.80;;;4.00;99.90;;;;;;5059905;28;20614;-34
2023/01/23 07:06:31;;;;;;;75.30;34.80;;;4.00;99.90;;;;;;5055403;28;20215;-33
2023/01/23 07:09:01;;;;;;;66.37;33.73;;;3.90;99.90;;;;;;5061109;28;20195;-34
2023/01/23 07:11:29;;;;;;;60.47;32.40;;;3.90;99.90;;;;;;5063120;28;20304;-33
2023/01/23 07:13:59;;;;;;;68.60;33.63;;;4.00;99.90;;;;;;5057613;28;20584;-35
2023/01/23 07:16:26;;;;;;;65.63;33.23;;;4.00;99.90;;;;;;5063747;28;20234;-33
2023/01/23 07:18:53;;;;;;;66.27;32.00;;;3.90;99.90;;;;;;5063419;28;20228;-34
2023/01/23 07:21:20;;;;;;;68.90;33.10;;;3.90;99.90;;;;;;5064132;28;20223;-33
2023/01/23 07:23:50;;;;;;;67.37;32.80;;;3.90;99.90;;;;;;5064748;28;20589;-33
2023/01/23 07:26:17;;;;;;;67.13;33.43;;;3.90;99.90;;;;;;5063969;28;20206;-33
2023/01/23 07:28:46;;;;;;;63.97;34.63;;;3.90;99.90;;;;;;5062363;28;20199;-33
2023/01/23 07:31:16;;;;;;;63.20;32.70;;;3.90;99.90;;;;;;5063067;28;20203;-34
2023/01/23 07:33:43;;;;;;;64.97;33.30;;;3.90;99.90;;;;;;5057278;28;20204;-33
2023/01/23 07:36:17;;;;;;;78.37;34.80;;;3.90;99.90;;;;;;5053827;28;20617;-33
2023/01/23 07:38:46;;;;;;;67.23;33.83;;;3.90;99.90;;;;;;5053050;28;20204;-33
2023/01/23 07:41:14;;;;;;;65.60;33.17;;;3.90;99.90;;;;;;5060469;28;20319;-33
2023/01/23 07:43:41;;;;;;;62.90;34.03;;;3.90;99.90;;;;;;5065074;28;20682;-34
2023/01/23 07:46:10;;;;;;;69.30;33.93;;;3.90;99.90;;;;;;5059833;28;21749;-34
2023/01/23 07:48:40;;;;;;;58.60;32.93;;;3.90;99.90;;;;;;5062008;28;20303;-33
2023/01/23 07:51:10;;;;;;;61.43;33.77;;;3.90;99.90;;;;;;5064611;28;20214;-34
2023/01/23 07:53:40;;;;;;;65.00;32.93;;;4.00;99.90;;;;;;5046025;28;20214;-34
2023/01/23 07:56:07;;;;;;;65.33;33.07;;;3.90;99.90;;;;;;5060245;28;20581;-33
2023/01/23 07:58:34;;;;;;;69.20;34.93;;;4.00;99.90;;;;;;5063503;28;20219;-33
2023/01/23 08:01:09;;;;;;;62.17;34.37;;;3.90;99.90;;;;;;5063371;28;20203;-34
2023/01/23 08:03:41;;;;;;;67.30;34.37;;;4.00;99.90;;;;;;5059555;28;20266;-34
2023/01/23 08:06:09;;;;;;;67.37;36.13;;;4.00;99.90;;;;;;5074953;28;20216;-33
2023/01/23 08:08:36;;;;;;;66.10;33.90;;;4.00;99.90;;;;;;5056662;28;20906;-34
2023/01/23 08:11:05;;;;;;;62.50;33.27;;;4.00;99.90;;;;;;5064746;28;20207;-34
2023/01/23 08:13:35;;;;;;;69.10;36.77;;;4.10;99.90;;;;;;5061155;28;20212;-33
2023/01/23 08:16:02;;;;;;;69.57;35.10;;;4.10;99.90;;;;;;5063519;28;20223;-33
2023/01/23 08:18:32;;;;;;;72.77;34.03;;;4.10;99.90;;;;;;5062557;28;20241;-33
2023/01/23 08:21:02;;;;;;;65.97;33.80;;;4.10;99.90;;;;;;5065830;28;20204;-34
2023/01/23 08:23:32;;;;;;;68.17;34.33;;;4.00;99.90;;;;;;5059389;28;20394;-32
2023/01/23 08:26:02;;;;;;;59.17;33.27;;;4.00;99.90;;;;;;5055216;28;20576;-31
2023/01/23 08:28:30;;;;;;;56.17;33.03;;;4.10;99.90;;;;;;5063651;28;20210;-31
2023/01/23 08:31:01;;;;;;;68.10;35.80;;;4.10;99.90;;;;;;5059227;28;20437;-31
2023/01/23 08:33:35;;;;;;;63.93;35.47;;;4.10;99.90;;;;;;5062678;28;20219;-32
2023/01/23 08:36:03;;;;;;;64.53;34.73;;;4.10;99.90;;;;;;5064408;28;20292;-31
2023/01/23 08:38:31;;;;;;;64.80;34.50;;;4.10;99.90;;;;;;5061271;28;20207;-31
2023/01/23 08:41:00;;;;;;;67.87;32.77;;;4.10;99.90;;;;;;5063147;28;20226;-32
2023/01/23 08:43:29;;;;;;;69.60;35.20;;;4.10;99.90;;;;;;5063331;28;20211;-31
2023/01/23 08:45:58;;;;;;;64.23;34.27;;;4.10;99.90;;;;;;5062377;28;20297;-31
2023/01/23 08:48:27;;;;;;;75.73;34.57;;;4.10;99.90;;;;;;5060158;28;20219;-31
2023/01/23 08:51:00;;;;;;;69.47;35.13;;;4.10;99.90;;;;;;5064512;28;20208;-31
2023/01/23 08:53:28;;;;;;;66.87;35.37;;;4.10;99.90;;;;;;5062153;28;20591;-31
2023/01/23 08:56:06;;;;;;;69.10;35.67;;;4.10;99.90;;;;;;5064307;28;20231;-31
2023/01/23 08:58:34;;;;;;;62.03;34.87;;;4.10;99.90;;;;;;5062886;28;20234;-32
2023/01/23 09:01:03;;;;;;;59.53;33.73;;;4.20;99.90;;;;;;5062531;28;20210;-31
2023/01/23 09:03:31;;;;;;;62.83;35.53;;;4.20;99.90;;;;;;5062612;28;20203;-31
2023/01/23 09:06:01;;;;;;;67.87;34.47;;;4.20;99.90;;;;;;5063705;28;20277;-31
2023/01/23 09:08:32;;;;;;;68.40;37.47;;;4.20;99.90;;;;;;5062978;28;20307;-31
2023/01/23 09:11:02;;;;;;;66.03;35.10;;;4.20;99.90;;;;;;5060809;28;20704;-31
2023/01/23 09:13:36;;;;;;;60.00;33.37;;;4.20;99.90;;;;;;5063788;28;20226;-31
2023/01/23 09:16:07;;;;;;;65.80;35.63;;;4.30;99.90;;;;;;5066818;28;20219;-31
2023/01/23 09:18:39;;;;;;;64.23;36.80;;;4.30;99.90;;;;;;5066602;28;20244;-31
2023/01/23 09:21:12;;;;;;;66.53;37.00;;;4.30;99.90;;;;;;5065383;28;20286;-31
2023/01/23 09:23:42;;;;;;;69.87;34.30;;;4.30;99.90;;;;;;5068206;28;21029;-31
2023/01/23 09:26:11;;;;;;;63.87;34.97;;;4.30;99.90;;;;;;5068004;28;20211;-31
2023/01/23 09:28:42;;;;;;;63.13;34.00;;;4.30;99.90;;;;;;5066810;28;20693;-31
2023/01/23 09:31:13;;;;;;;63.27;34.50;;;4.30;99.90;;;;;;5063984;28;20306;-31
2023/01/23 09:33:43;;;;;;;65.13;36.37;;;4.40;99.90;;;;;;5067216;28;20215;-31
2023/01/23 09:36:13;;;;;;;62.30;34.77;;;4.30;99.90;;;;;;5067910;28;20223;-31
2023/01/23 09:38:42;;;;;;;65.70;37.87;;;4.30;99.90;;;;;;5073257;28;20699;-31
2023/01/23 09:41:22;;;;;;;65.37;35.83;;;4.30;99.90;;;;;;5061729;28;20658;-31
2023/01/23 09:43:59;;;;;;;62.57;35.63;;;4.30;99.90;;;;;;5064337;28;20208;-31
2023/01/23 09:46:46;;;;;;;68.77;35.47;;;4.30;99.90;;;;;;5066315;28;20624;-31
2023/01/23 09:49:18;;;;;;;64.30;34.10;;;4.40;99.90;;;;;;5048929;28;20612;-31
2023/01/23 09:51:58;;;;;;;69.27;36.80;;;4.40;99.90;;;;;;5065894;28;20301;-31
2023/01/23 09:54:35;;;;;;;63.80;36.37;;;4.40;99.90;;;;;;5067413;28;20302;-31
2023/01/23 09:57:24;;;;;;;63.23;36.70;;;4.40;99.90;;;;;;5051724;28;20674;-31
2023/01/23 10:00:16;;;;;;;69.03;36.50;;;4.50;99.90;;;;;;5064714;28;20738;-31
2023/01/23 10:02:44;;;;;;;61.53;35.60;;;4.50;99.90;;;;;;5063830;28;20445;-31
2023/01/23 10:05:17;;;;;;;63.33;36.23;;;4.50;99.90;;;;;;5065907;28;20620;-31
2023/01/23 10:08:22;;;;;;;61.77;36.40;;;4.60;99.90;;;;;;5054495;28;20684;-31
2023/01/23 10:11:11;;;;;;;64.10;35.03;;;4.60;99.90;;;;;;5068283;28;20207;-31
2023/01/23 10:13:47;;;;;;;63.67;35.67;;;4.60;99.90;;;;;;5064059;28;20919;-31
2023/01/23 10:16:26;;;;;;;56.47;33.90;;;4.60;99.90;;;;;;5064646;28;20215;-31
2023/01/23 10:19:28;;;;;;;62.33;34.77;;;4.60;99.90;;;;;;5066675;28;20207;-31
2023/01/23 10:22:09;;;;;;;54.07;32.23;;;4.60;99.90;;;;;;5067672;28;20647;-32
2023/01/23 10:24:56;;;;;;;62.70;35.10;;;4.70;99.90;;;;;;5066445;28;20238;-32
2023/01/23 10:27:33;;;;;;;57.30;35.00;;;4.70;99.90;;;;;;5064883;28;20728;-32
2023/01/23 10:30:32;;;;;;;58.77;34.63;;;4.70;99.90;;;;;;5067982;28;20218;-32
2023/01/23 10:33:10;;;;;;;55.83;33.93;;;4.70;99.90;;;;;;5051150;28;20208;-32
2023/01/23 10:35:43;;;;;;;58.97;33.53;;;4.70;99.90;;;;;;5055347;28;20269;-32
2023/01/23 10:38:29;;;;;;;60.30;34.50;;;4.70;99.90;;;;;;5067538;28;20225;-32
2023/01/23 10:41:18;;;;;;;60.53;34.13;;;4.70;99.90;;;;;;5063704;28;20199;-32
2023/01/23 10:43:53;;;;;;;60.03;35.27;;;4.70;99.90;;;;;;5065717;28;20302;-32
2023/01/23 10:46:27;;;;;;;58.30;34.67;;;4.70;99.90;;;;;;5066050;28;20203;-32
2023/01/23 10:48:59;;;;;;;64.50;35.17;;;4.60;99.90;;;;;;5066037;28;20199;-32
2023/01/23 10:51:46;;;;;;;62.43;35.87;;;4.60;99.90;;;;;;5054457;28;20244;-32
2023/01/23 10:54:17;;;;;;;60.63;34.33;;;4.60;99.90;;;;;;5055257;28;20299;-32
2023/01/23 10:56:59;;;;;;;58.33;34.50;;;4.60;99.90;;;;;;5062594;28;20296;-32
2023/01/23 10:59:35;;;;;;;62.30;35.30;;;4.70;99.90;;;;;;5051166;28;20663;-32
2023/01/23 11:02:18;;;;;;;59.87;35.70;;;4.70;99.90;;;;;;5064739;28;20231;-32
2023/01/23 11:04:52;;;;;;;62.57;35.33;;;4.70;99.90;;;;;;5055579;28;20192;-32
2023/01/23 11:07:28;;;;;;;56.13;34.93;;;4.70;99.90;;;;;;5061702;28;20716;-32
2023/01/23 11:10:19;;;;;;;64.17;35.03;;;4.80;99.90;;;;;;5062574;28;20693;-32
2023/01/23 11:12:54;;;;;;;59.37;36.10;;;4.70;99.90;;;;;;5055571;28;20218;-32
2023/01/23 11:15:32;;;;;;;59.23;35.17;;;4.70;99.90;;;;;;5064614;28;20733;-32
2023/01/23 11:18:20;;;;;;;62.63;35.67;;;4.80;99.90;;;;;;5049223;28;20196;-32
2023/01/23 11:20:56;;;;;;;61.00;35.33;;;4.80;99.90;;;;;;5054624;28;20200;-32
2023/01/23 11:23:26;;;;;;;58.50;35.70;;;4.80;99.90;;;;;;5062990;28;20244;-32
2023/01/23 11:25:56;;;;;;;58.20;34.63;;;4.80;99.90;;;;;;5065098;28;20207;-32
2023/01/23 11:28:34;;;;;;;59.90;35.70;;;4.80;99.90;;;;;;5065965;28;20557;-32
2023/01/23 11:31:07;;;;;;;63.17;35.50;;;4.80;99.90;;;;;;5065242;28;20200;-32
2023/01/23 11:34:01;;;;;;;60.60;35.40;;;4.80;99.90;;;;;;5064115;28;20203;-32
2023/01/23 11:36:40;;;;;;;60.20;35.17;;;4.90;99.90;;;;;;5065537;28;20603;-32
2023/01/23 11:39:19;;;;;;;58.50;34.80;;;4.90;99.90;;;;;;5062285;28;20208;-32
2023/01/23 11:41:47;;;;;;;56.23;35.00;;;4.90;99.90;;;;;;5046462;28;20675;-32
2023/01/23 11:44:21;;;;;;;59.10;33.87;;;4.90;99.90;;;;;;5058308;28;20257;-32
2023/01/23 11:47:24;;;;;;;54.37;32.77;;;5.00;99.90;;;;;;5058926;28;20692;-32
2023/01/23 11:50:10;;;;;;;59.77;33.87;;;5.00;99.90;;;;;;5063517;28;20755;-32
2023/01/23 11:52:52;;;;;;;59.37;33.87;;;5.00;99.90;;;;;;5061698;28;20235;-32
2023/01/23 11:56:05;;;;;;;70.13;35.37;;;5.10;99.90;;;;;;5064653;28;20228;-32
2023/01/23 11:58:47;;;;;;;65.13;35.37;;;5.10;99.90;;;;;;5063419;28;20249;-32
2023/01/23 12:01:41;;;;;;;61.17;35.23;;;5.10;99.90;;;;;;5065078;28;20200;-32
2023/01/23 12:04:53;;;;;;;65.93;35.20;;;5.20;99.90;;;;;;5061553;28;20230;-32
2023/01/23 12:07:25;;;;;;;59.93;35.37;;;5.20;99.90;;;;;;5059088;28;20199;-32
2023/01/23 12:10:08;;;;;;;62.57;36.43;;;5.20;99.90;;;;;;5064528;28;20200;-32
2023/01/23 12:13:14;;;;;;;65.53;35.63;;;5.30;99.90;;;;;;5063638;28;20203;-31
2023/01/23 12:16:09;;;;;;;58.37;35.03;;;5.30;99.90;;;;;;5064242;28;20590;-31
2023/01/23 12:19:02;;;;;;;60.47;33.40;;;5.30;99.90;;;;;;5056118;28;20294;-31
2023/01/23 12:21:50;;;;;;;61.23;34.97;;;5.30;99.90;;;;;;5063826;28;21022;-31
2023/01/23 12:24:33;;;;;;;58.17;34.67;;;5.30;99.90;;;;;;5061848;28;20235;-31
2023/01/23 12:27:10;;;;;;;57.07;34.23;;;5.30;99.90;;;;;;5065177;28;20211;-31
2023/01/23 12:29:57;;;;;;;58.27;34.63;;;5.40;99.90;;;;;;5064415;28;20619;-31
2023/01/23 12:32:50;;;;;;;55.27;34.20;;;5.40;99.90;;;;;;5063839;28;20682;-31
2023/01/23 12:36:03;;;;;;;57.53;35.13;;;5.50;99.90;;;;;;5057156;28;20231;-32
2023/01/23 12:38:46;;;;;;;51.20;32.80;;;5.40;99.90;;;;;;5059942;28;20199;-31
2023/01/23 12:42:02;;;;;;;54.70;34.00;;;5.40;99.90;;;;;;5064560;28;20211;-32
2023/01/23 12:44:37;;;;;;;55.10;33.13;;;5.50;99.90;;;;;;5051410;28;20208;-31
2023/01/23 12:47:11;;;;;;;56.27;34.07;;;5.50;99.90;;;;;;5060926;28;20636;-32
2023/01/23 12:49:49;;;;;;;56.10;33.70;;;5.50;99.90;;;;;;5064470;28;20211;-32
2023/01/23 12:52:46;;;;;;;55.10;33.20;;;5.50;99.90;;;;;;5059141;28;20794;-31
2023/01/23 12:55:31;;;;;;;63.10;32.87;;;5.50;99.90;;;;;;5062485;28;20200;-32
2023/01/23 12:58:00;;;;;;;57.07;33.10;;;5.60;99.90;;;;;;5060103;28;20215;-32
2023/01/23 13:00:47;;;;;;;60.70;33.10;;;5.60;99.90;;;;;;5065415;28;20591;-32
2023/01/23 13:03:30;;;;;;;51.97;32.33;;;5.50;99.90;;;;;;5051991;28;20200;-32
2023/01/23 13:06:34;;;;;;;50.47;31.07;;;5.50;99.90;;;;;;5058336;28;20594;-31
2023/01/23 13:09:43;;;;;;;55.17;32.57;;;5.50;99.90;;;;;;5062866;28;20219;-31
2023/01/23 13:12:18;;;;;;;52.83;32.23;;;5.60;99.90;;;;;;5056940;28;20507;-32
2023/01/23 13:14:51;;;;;;;53.37;31.43;;;5.60;99.90;;;;;;5048663;28;20685;-31
2023/01/23 13:17:47;;;;;;;51.67;31.47;;;5.70;99.90;;;;;;5060043;28;20230;-31